sensor_id;sensor_type;location;lat;lon;timestamp;P1;durP1;ratioP1;P2;durP2;ratioP2
7471;SDS011;3777;48.722;8.110;2023-07-08T00:01:07;9.15;;;7.70;;
7471;SDS011;3777;48.722;8.110;2023-07-08T00:03:37;9.77;;;7.80;;
7471;SDS011;3777;48.722;8.110;2023-07-08T00:06:04;10.73;;;7.97;;
7471;SDS011;3777;48.722;8.110;2023-07-08T00:08:34;12.00;;;8.10;;
7471;SDS011;3777;48.722;8.110;2023-07-08T00:11:00;9.02;;;7.88;;
7471;SDS011;3777;48.722;8.110;2023-07-08T00:13:29;9.05;;;7.88;;
7471;SDS011;3777;48.722;8.110;2023-07-08T00:15:56;10.93;;;7.88;;
7471;SDS011;3777;48.722;8.110;2023-07-08T00:18:23;9.02;;;7.38;;
7471;SDS011;3777;48.722;8.110;2023-07-08T00:20:50;9.23;;;7.43;;
7471;SDS011;3777;48.722;8.110;2023-07-08T00:23:17;10.15;;;7.65;;
7471;SDS011;3777;48.722;8.110;2023-07-08T00:25:47;10.00;;;7.97;;
7471;SDS011;3777;48.722;8.110;2023-07-08T00:28:16;10.57;;;8.23;;
7471;SDS011;3777;48.722;8.110;2023-07-08T00:30:46;11.03;;;8.07;;
7471;SDS011;3777;48.722;8.110;2023-07-08T00:33:13;9.02;;;7.90;;
7471;SDS011;3777;48.722;8.110;2023-07-08T00:35:42;10.55;;;8.70;;
7471;SDS011;3777;48.722;8.110;2023-07-08T00:38:11;10.05;;;8.50;;
7471;SDS011;3777;48.722;8.110;2023-07-08T00:40:48;11.27;;;8.38;;
7471;SDS011;3777;48.722;8.110;2023-07-08T00:43:17;12.10;;;8.90;;
7471;SDS011;3777;48.722;8.110;2023-07-08T00:45:50;8.52;;;7.63;;
7471;SDS011;3777;48.722;8.110;2023-07-08T00:48:22;9.85;;;8.25;;
7471;SDS011;3777;48.722;8.110;2023-07-08T00:50:57;10.38;;;8.73;;
7471;SDS011;3777;48.722;8.110;2023-07-08T00:53:26;12.23;;;8.63;;
7471;SDS011;3777;48.722;8.110;2023-07-08T00:55:55;11.13;;;8.50;;
7471;SDS011;3777;48.722;8.110;2023-07-08T00:58:25;9.20;;;8.30;;
7471;SDS011;3777;48.722;8.110;2023-07-08T01:00:58;11.23;;;8.18;;
7471;SDS011;3777;48.722;8.110;2023-07-08T01:03:25;9.70;;;8.15;;
7471;SDS011;3777;48.722;8.110;2023-07-08T01:05:55;10.00;;;8.30;;
7471;SDS011;3777;48.722;8.110;2023-07-08T01:08:25;13.52;;;9.07;;
7471;SDS011;3777;48.722;8.110;2023-07-08T01:10:56;10.60;;;8.48;;
7471;SDS011;3777;48.722;8.110;2023-07-08T01:13:26;10.53;;;8.60;;
7471;SDS011;3777;48.722;8.110;2023-07-08T01:15:59;10.52;;;8.27;;
7471;SDS011;3777;48.722;8.110;2023-07-08T01:18:26;10.52;;;9.25;;
7471;SDS011;3777;48.722;8.110;2023-07-08T01:20:53;11.02;;;8.90;;
7471;SDS011;3777;48.722;8.110;2023-07-08T01:23:22;10.95;;;8.70;;
7471;SDS011;3777;48.722;8.110;2023-07-08T01:25:50;12.00;;;9.27;;
7471;SDS011;3777;48.722;8.110;2023-07-08T01:28:18;11.55;;;9.15;;
7471;SDS011;3777;48.722;8.110;2023-07-08T01:30:45;9.68;;;8.60;;
7471;SDS011;3777;48.722;8.110;2023-07-08T01:33:16;11.07;;;8.70;;
7471;SDS011;3777;48.722;8.110;2023-07-08T01:35:47;10.57;;;9.07;;
7471;SDS011;3777;48.722;8.110;2023-07-08T01:38:15;10.57;;;9.15;;
7471;SDS011;3777;48.722;8.110;2023-07-08T01:40:50;10.50;;;8.93;;
7471;SDS011;3777;48.722;8.110;2023-07-08T01:43:18;13.75;;;9.13;;
7471;SDS011;3777;48.722;8.110;2023-07-08T01:45:45;10.52;;;8.80;;
7471;SDS011;3777;48.722;8.110;2023-07-08T01:48:14;11.25;;;8.80;;
7471;SDS011;3777;48.722;8.110;2023-07-08T01:50:46;11.05;;;9.38;;
7471;SDS011;3777;48.722;8.110;2023-07-08T01:53:18;11.27;;;9.07;;
7471;SDS011;3777;48.722;8.110;2023-07-08T01:55:49;12.85;;;9.57;;
7471;SDS011;3777;48.722;8.110;2023-07-08T01:58:16;11.13;;;8.98;;
7471;SDS011;3777;48.722;8.110;2023-07-08T02:00:43;11.23;;;9.07;;
7471;SDS011;3777;48.722;8.110;2023-07-08T02:03:13;13.30;;;9.48;;
7471;SDS011;3777;48.722;8.110;2023-07-08T02:05:40;9.23;;;7.93;;
7471;SDS011;3777;48.722;8.110;2023-07-08T02:08:07;12.23;;;9.77;;
7471;SDS011;3777;48.722;8.110;2023-07-08T02:10:34;10.75;;;8.45;;
7471;SDS011;3777;48.722;8.110;2023-07-08T02:13:03;11.38;;;9.40;;
7471;SDS011;3777;48.722;8.110;2023-07-08T02:15:30;10.25;;;9.02;;
7471;SDS011;3777;48.722;8.110;2023-07-08T02:17:58;9.50;;;8.43;;
7471;SDS011;3777;48.722;8.110;2023-07-08T02:20:25;10.55;;;8.60;;
7471;SDS011;3777;48.722;8.110;2023-07-08T02:22:52;9.80;;;8.30;;
7471;SDS011;3777;48.722;8.110;2023-07-08T02:25:19;10.63;;;8.65;;
7471;SDS011;3777;48.722;8.110;2023-07-08T02:27:45;10.82;;;9.35;;
7471;SDS011;3777;48.722;8.110;2023-07-08T02:30:14;11.07;;;8.73;;
7471;SDS011;3777;48.722;8.110;2023-07-08T02:32:41;12.90;;;9.38;;
7471;SDS011;3777;48.722;8.110;2023-07-08T02:35:13;8.88;;;7.97;;
7471;SDS011;3777;48.722;8.110;2023-07-08T02:37:40;10.75;;;8.98;;
7471;SDS011;3777;48.722;8.110;2023-07-08T02:40:08;10.40;;;8.70;;
7471;SDS011;3777;48.722;8.110;2023-07-08T02:42:36;10.67;;;8.73;;
7471;SDS011;3777;48.722;8.110;2023-07-08T02:45:03;10.93;;;8.93;;
7471;SDS011;3777;48.722;8.110;2023-07-08T02:47:32;11.45;;;9.50;;
7471;SDS011;3777;48.722;8.110;2023-07-08T02:49:59;10.93;;;9.73;;
7471;SDS011;3777;48.722;8.110;2023-07-08T02:52:26;12.20;;;9.23;;
7471;SDS011;3777;48.722;8.110;2023-07-08T02:54:53;11.02;;;9.02;;
7471;SDS011;3777;48.722;8.110;2023-07-08T02:57:20;10.52;;;9.07;;
7471;SDS011;3777;48.722;8.110;2023-07-08T02:59:47;10.02;;;9.02;;
7471;SDS011;3777;48.722;8.110;2023-07-08T03:02:14;11.70;;;9.55;;
7471;SDS011;3777;48.722;8.110;2023-07-08T03:04:42;12.27;;;9.52;;
7471;SDS011;3777;48.722;8.110;2023-07-08T03:07:10;11.98;;;9.82;;
7471;SDS011;3777;48.722;8.110;2023-07-08T03:09:37;11.93;;;9.35;;
7471;SDS011;3777;48.722;8.110;2023-07-08T03:12:05;13.07;;;9.60;;
7471;SDS011;3777;48.722;8.110;2023-07-08T03:14:32;10.10;;;8.85;;
7471;SDS011;3777;48.722;8.110;2023-07-08T03:16:59;11.07;;;8.80;;
7471;SDS011;3777;48.722;8.110;2023-07-08T03:19:26;12.25;;;9.55;;
7471;SDS011;3777;48.722;8.110;2023-07-08T03:21:55;12.85;;;9.50;;
7471;SDS011;3777;48.722;8.110;2023-07-08T03:24:22;10.37;;;9.27;;
7471;SDS011;3777;48.722;8.110;2023-07-08T03:26:49;11.90;;;9.40;;
7471;SDS011;3777;48.722;8.110;2023-07-08T03:29:19;10.50;;;9.30;;
7471;SDS011;3777;48.722;8.110;2023-07-08T03:31:46;11.02;;;9.48;;
7471;SDS011;3777;48.722;8.110;2023-07-08T03:34:14;10.45;;;8.82;;
7471;SDS011;3777;48.722;8.110;2023-07-08T03:36:43;9.10;;;8.10;;
7471;SDS011;3777;48.722;8.110;2023-07-08T03:39:15;12.32;;;9.48;;
7471;SDS011;3777;48.722;8.110;2023-07-08T03:41:43;10.30;;;8.82;;
7471;SDS011;3777;48.722;8.110;2023-07-08T03:44:10;10.77;;;9.30;;
7471;SDS011;3777;48.722;8.110;2023-07-08T03:46:38;12.32;;;9.25;;
7471;SDS011;3777;48.722;8.110;2023-07-08T03:49:05;10.95;;;8.85;;
7471;SDS011;3777;48.722;8.110;2023-07-08T03:51:33;11.13;;;8.80;;
7471;SDS011;3777;48.722;8.110;2023-07-08T03:54:02;11.38;;;9.25;;
7471;SDS011;3777;48.722;8.110;2023-07-08T03:56:31;10.27;;;9.05;;
7471;SDS011;3777;48.722;8.110;2023-07-08T03:58:58;10.43;;;9.32;;
7471;SDS011;3777;48.722;8.110;2023-07-08T04:01:25;10.75;;;9.65;;
7471;SDS011;3777;48.722;8.110;2023-07-08T04:03:54;11.23;;;9.33;;
7471;SDS011;3777;48.722;8.110;2023-07-08T04:06:22;13.15;;;9.77;;
7471;SDS011;3777;48.722;8.110;2023-07-08T04:08:49;12.35;;;9.68;;
7471;SDS011;3777;48.722;8.110;2023-07-08T04:11:17;12.02;;;9.85;;
7471;SDS011;3777;48.722;8.110;2023-07-08T04:13:47;12.50;;;9.45;;
7471;SDS011;3777;48.722;8.110;2023-07-08T04:16:15;13.20;;;10.18;;
7471;SDS011;3777;48.722;8.110;2023-07-08T04:18:44;12.73;;;9.82;;
7471;SDS011;3777;48.722;8.110;2023-07-08T04:21:11;11.70;;;9.68;;
7471;SDS011;3777;48.722;8.110;2023-07-08T04:23:38;12.93;;;10.10;;
7471;SDS011;3777;48.722;8.110;2023-07-08T04:26:05;13.27;;;10.27;;
7471;SDS011;3777;48.722;8.110;2023-07-08T04:28:34;10.07;;;9.03;;
7471;SDS011;3777;48.722;8.110;2023-07-08T04:31:02;11.93;;;9.48;;
7471;SDS011;3777;48.722;8.110;2023-07-08T04:33:30;11.63;;;9.90;;
7471;SDS011;3777;48.722;8.110;2023-07-08T04:35:57;13.88;;;9.70;;
7471;SDS011;3777;48.722;8.110;2023-07-08T04:38:24;13.00;;;9.85;;
7471;SDS011;3777;48.722;8.110;2023-07-08T04:40:53;10.25;;;9.10;;
7471;SDS011;3777;48.722;8.110;2023-07-08T04:43:22;13.48;;;10.38;;
7471;SDS011;3777;48.722;8.110;2023-07-08T04:45:54;12.68;;;10.13;;
7471;SDS011;3777;48.722;8.110;2023-07-08T04:48:23;13.23;;;10.10;;
7471;SDS011;3777;48.722;8.110;2023-07-08T04:50:51;11.32;;;9.27;;
7471;SDS011;3777;48.722;8.110;2023-07-08T04:53:18;11.70;;;9.18;;
7471;SDS011;3777;48.722;8.110;2023-07-08T04:55:46;13.27;;;9.70;;
7471;SDS011;3777;48.722;8.110;2023-07-08T04:58:16;11.30;;;9.37;;
7471;SDS011;3777;48.722;8.110;2023-07-08T05:00:43;11.38;;;9.65;;
7471;SDS011;3777;48.722;8.110;2023-07-08T05:03:10;10.85;;;9.10;;
7471;SDS011;3777;48.722;8.110;2023-07-08T05:05:41;10.05;;;8.25;;
7471;SDS011;3777;48.722;8.110;2023-07-08T05:08:08;13.48;;;8.27;;
7471;SDS011;3777;48.722;8.110;2023-07-08T05:10:37;9.43;;;6.93;;
7471;SDS011;3777;48.722;8.110;2023-07-08T05:13:04;7.60;;;6.28;;
7471;SDS011;3777;48.722;8.110;2023-07-08T05:15:31;8.25;;;5.70;;
7471;SDS011;3777;48.722;8.110;2023-07-08T05:17:58;9.20;;;5.10;;
7471;SDS011;3777;48.722;8.110;2023-07-08T05:20:25;7.97;;;4.63;;
7471;SDS011;3777;48.722;8.110;2023-07-08T05:22:53;7.90;;;4.68;;
7471;SDS011;3777;48.722;8.110;2023-07-08T05:25:20;7.00;;;4.63;;
7471;SDS011;3777;48.722;8.110;2023-07-08T05:27:48;8.00;;;4.30;;
7471;SDS011;3777;48.722;8.110;2023-07-08T05:30:16;7.07;;;4.30;;
7471;SDS011;3777;48.722;8.110;2023-07-08T05:32:44;7.70;;;4.38;;
7471;SDS011;3777;48.722;8.110;2023-07-08T05:35:11;6.43;;;4.17;;
7471;SDS011;3777;48.722;8.110;2023-07-08T05:37:38;6.43;;;4.40;;
7471;SDS011;3777;48.722;8.110;2023-07-08T05:40:11;7.75;;;4.13;;
7471;SDS011;3777;48.722;8.110;2023-07-08T05:42:38;6.28;;;4.00;;
7471;SDS011;3777;48.722;8.110;2023-07-08T05:45:05;8.32;;;3.60;;
7471;SDS011;3777;48.722;8.110;2023-07-08T05:47:32;5.15;;;3.50;;
7471;SDS011;3777;48.722;8.110;2023-07-08T05:49:59;5.85;;;3.45;;
7471;SDS011;3777;48.722;8.110;2023-07-08T05:52:26;6.97;;;3.83;;
7471;SDS011;3777;48.722;8.110;2023-07-08T05:54:53;5.53;;;3.88;;
7471;SDS011;3777;48.722;8.110;2023-07-08T05:57:22;6.25;;;3.53;;
7471;SDS011;3777;48.722;8.110;2023-07-08T05:59:49;5.85;;;3.55;;
7471;SDS011;3777;48.722;8.110;2023-07-08T06:02:17;5.03;;;3.88;;
7471;SDS011;3777;48.722;8.110;2023-07-08T06:04:46;5.68;;;3.53;;
7471;SDS011;3777;48.722;8.110;2023-07-08T06:07:13;5.05;;;3.80;;
7471;SDS011;3777;48.722;8.110;2023-07-08T06:09:41;6.78;;;3.65;;
7471;SDS011;3777;48.722;8.110;2023-07-08T06:12:08;5.32;;;3.97;;
7471;SDS011;3777;48.722;8.110;2023-07-08T06:14:37;7.97;;;4.05;;
7471;SDS011;3777;48.722;8.110;2023-07-08T06:17:04;8.32;;;4.10;;
7471;SDS011;3777;48.722;8.110;2023-07-08T06:19:32;5.47;;;4.05;;
7471;SDS011;3777;48.722;8.110;2023-07-08T06:21:59;9.25;;;4.15;;
7471;SDS011;3777;48.722;8.110;2023-07-08T06:24:26;6.65;;;3.85;;
7471;SDS011;3777;48.722;8.110;2023-07-08T06:26:53;9.40;;;4.03;;
7471;SDS011;3777;48.722;8.110;2023-07-08T06:29:20;7.45;;;3.80;;
7471;SDS011;3777;48.722;8.110;2023-07-08T06:31:48;4.93;;;3.60;;
7471;SDS011;3777;48.722;8.110;2023-07-08T06:34:15;5.03;;;3.65;;
7471;SDS011;3777;48.722;8.110;2023-07-08T06:36:43;5.18;;;3.50;;
7471;SDS011;3777;48.722;8.110;2023-07-08T06:39:10;6.32;;;3.70;;
7471;SDS011;3777;48.722;8.110;2023-07-08T06:41:37;4.88;;;3.33;;
7471;SDS011;3777;48.722;8.110;2023-07-08T06:44:04;4.28;;;3.10;;
7471;SDS011;3777;48.722;8.110;2023-07-08T06:46:32;4.68;;;2.90;;
7471;SDS011;3777;48.722;8.110;2023-07-08T06:49:00;4.13;;;3.00;;
7471;SDS011;3777;48.722;8.110;2023-07-08T06:51:27;7.43;;;3.20;;
7471;SDS011;3777;48.722;8.110;2023-07-08T06:53:55;3.63;;;2.72;;
7471;SDS011;3777;48.722;8.110;2023-07-08T06:56:22;6.40;;;3.05;;
7471;SDS011;3777;48.722;8.110;2023-07-08T06:58:49;4.53;;;2.70;;
7471;SDS011;3777;48.722;8.110;2023-07-08T07:01:16;6.63;;;2.80;;
7471;SDS011;3777;48.722;8.110;2023-07-08T07:03:43;5.97;;;2.60;;
7471;SDS011;3777;48.722;8.110;2023-07-08T07:06:11;4.85;;;2.80;;
7471;SDS011;3777;48.722;8.110;2023-07-08T07:08:38;3.97;;;2.50;;
7471;SDS011;3777;48.722;8.110;2023-07-08T07:11:05;3.53;;;2.63;;
7471;SDS011;3777;48.722;8.110;2023-07-08T07:13:32;4.50;;;2.97;;
7471;SDS011;3777;48.722;8.110;2023-07-08T07:15:59;2.95;;;2.33;;
7471;SDS011;3777;48.722;8.110;2023-07-08T07:18:26;4.85;;;2.47;;
7471;SDS011;3777;48.722;8.110;2023-07-08T07:20:53;4.55;;;2.67;;
7471;SDS011;3777;48.722;8.110;2023-07-08T07:23:22;7.05;;;3.00;;
7471;SDS011;3777;48.722;8.110;2023-07-08T07:25:50;5.50;;;2.70;;
7471;SDS011;3777;48.722;8.110;2023-07-08T07:28:17;8.10;;;3.13;;
7471;SDS011;3777;48.722;8.110;2023-07-08T07:30:44;4.35;;;2.67;;
7471;SDS011;3777;48.722;8.110;2023-07-08T07:33:12;5.53;;;3.08;;
7471;SDS011;3777;48.722;8.110;2023-07-08T07:35:41;5.28;;;2.47;;
7471;SDS011;3777;48.722;8.110;2023-07-08T07:38:09;3.58;;;2.72;;
7471;SDS011;3777;48.722;8.110;2023-07-08T07:40:41;5.97;;;2.92;;
7471;SDS011;3777;48.722;8.110;2023-07-08T07:43:09;4.93;;;2.75;;
7471;SDS011;3777;48.722;8.110;2023-07-08T07:45:36;3.78;;;2.60;;
7471;SDS011;3777;48.722;8.110;2023-07-08T07:48:03;4.80;;;2.72;;
7471;SDS011;3777;48.722;8.110;2023-07-08T07:50:30;3.03;;;2.60;;
7471;SDS011;3777;48.722;8.110;2023-07-08T07:52:58;3.67;;;2.53;;
7471;SDS011;3777;48.722;8.110;2023-07-08T07:55:25;4.07;;;2.70;;
7471;SDS011;3777;48.722;8.110;2023-07-08T07:57:53;4.00;;;2.20;;
7471;SDS011;3777;48.722;8.110;2023-07-08T08:00:20;3.13;;;2.22;;
7471;SDS011;3777;48.722;8.110;2023-07-08T08:02:47;4.13;;;2.88;;
7471;SDS011;3777;48.722;8.110;2023-07-08T08:05:14;7.82;;;2.85;;
7471;SDS011;3777;48.722;8.110;2023-07-08T08:07:41;4.93;;;2.80;;
7471;SDS011;3777;48.722;8.110;2023-07-08T08:10:08;7.88;;;3.00;;
7471;SDS011;3777;48.722;8.110;2023-07-08T08:12:35;6.53;;;2.80;;
7471;SDS011;3777;48.722;8.110;2023-07-08T08:15:04;6.18;;;2.63;;
7471;SDS011;3777;48.722;8.110;2023-07-08T08:17:32;9.75;;;2.67;;
7471;SDS011;3777;48.722;8.110;2023-07-08T08:20:02;5.25;;;2.70;;
7471;SDS011;3777;48.722;8.110;2023-07-08T08:22:29;3.30;;;2.53;;
7471;SDS011;3777;48.722;8.110;2023-07-08T08:24:56;3.33;;;2.30;;
7471;SDS011;3777;48.722;8.110;2023-07-08T08:27:23;4.57;;;2.35;;
7471;SDS011;3777;48.722;8.110;2023-07-08T08:29:50;5.25;;;2.25;;
7471;SDS011;3777;48.722;8.110;2023-07-08T08:32:18;6.88;;;2.40;;
7471;SDS011;3777;48.722;8.110;2023-07-08T08:34:45;5.05;;;2.40;;
7471;SDS011;3777;48.722;8.110;2023-07-08T08:37:12;7.00;;;2.60;;
7471;SDS011;3777;48.722;8.110;2023-07-08T08:39:39;10.52;;;2.80;;
7471;SDS011;3777;48.722;8.110;2023-07-08T08:42:07;4.20;;;2.10;;
7471;SDS011;3777;48.722;8.110;2023-07-08T08:44:45;4.18;;;2.70;;
7471;SDS011;3777;48.722;8.110;2023-07-08T08:47:14;3.00;;;2.13;;
7471;SDS011;3777;48.722;8.110;2023-07-08T08:49:50;3.80;;;2.30;;
7471;SDS011;3777;48.722;8.110;2023-07-08T08:52:23;4.15;;;2.47;;
7471;SDS011;3777;48.722;8.110;2023-07-08T08:54:50;3.63;;;2.25;;
7471;SDS011;3777;48.722;8.110;2023-07-08T08:57:31;5.70;;;2.70;;
7471;SDS011;3777;48.722;8.110;2023-07-08T09:00:04;6.45;;;2.70;;
7471;SDS011;3777;48.722;8.110;2023-07-08T09:02:37;4.38;;;2.40;;
7471;SDS011;3777;48.722;8.110;2023-07-08T09:05:08;5.40;;;2.50;;
7471;SDS011;3777;48.722;8.110;2023-07-08T09:07:40;6.35;;;2.55;;
7471;SDS011;3777;48.722;8.110;2023-07-08T09:10:13;4.28;;;2.30;;
7471;SDS011;3777;48.722;8.110;2023-07-08T09:12:47;4.22;;;2.67;;
7471;SDS011;3777;48.722;8.110;2023-07-08T09:15:17;6.22;;;2.70;;
7471;SDS011;3777;48.722;8.110;2023-07-08T09:17:46;7.18;;;2.80;;
7471;SDS011;3777;48.722;8.110;2023-07-08T09:20:17;4.53;;;2.80;;
7471;SDS011;3777;48.722;8.110;2023-07-08T09:22:51;4.80;;;2.60;;
7471;SDS011;3777;48.722;8.110;2023-07-08T09:25:28;4.28;;;2.28;;
7471;SDS011;3777;48.722;8.110;2023-07-08T09:27:58;3.70;;;2.30;;
7471;SDS011;3777;48.722;8.110;2023-07-08T09:30:26;2.93;;;2.27;;
7471;SDS011;3777;48.722;8.110;2023-07-08T09:32:55;2.92;;;2.30;;
7471;SDS011;3777;48.722;8.110;2023-07-08T09:35:23;5.00;;;2.65;;
7471;SDS011;3777;48.722;8.110;2023-07-08T09:37:52;3.58;;;2.40;;
7471;SDS011;3777;48.722;8.110;2023-07-08T09:40:21;5.28;;;2.58;;
7471;SDS011;3777;48.722;8.110;2023-07-08T09:42:55;4.20;;;2.28;;
7471;SDS011;3777;48.722;8.110;2023-07-08T09:45:27;3.55;;;2.08;;
7471;SDS011;3777;48.722;8.110;2023-07-08T09:47:57;4.13;;;2.10;;
7471;SDS011;3777;48.722;8.110;2023-07-08T09:50:28;4.00;;;2.17;;
7471;SDS011;3777;48.722;8.110;2023-07-08T09:52:57;3.75;;;2.00;;
7471;SDS011;3777;48.722;8.110;2023-07-08T09:55:25;2.63;;;1.85;;
7471;SDS011;3777;48.722;8.110;2023-07-08T09:57:53;3.97;;;2.30;;
7471;SDS011;3777;48.722;8.110;2023-07-08T10:00:26;2.30;;;2.03;;
7471;SDS011;3777;48.722;8.110;2023-07-08T10:02:55;2.67;;;1.90;;
7471;SDS011;3777;48.722;8.110;2023-07-08T10:05:25;4.72;;;2.15;;
7471;SDS011;3777;48.722;8.110;2023-07-08T10:07:56;3.78;;;2.13;;
7471;SDS011;3777;48.722;8.110;2023-07-08T10:10:26;2.60;;;1.90;;
7471;SDS011;3777;48.722;8.110;2023-07-08T10:12:58;3.13;;;1.92;;
7471;SDS011;3777;48.722;8.110;2023-07-08T10:15:30;2.95;;;2.08;;
7471;SDS011;3777;48.722;8.110;2023-07-08T10:18:03;4.50;;;1.80;;
7471;SDS011;3777;48.722;8.110;2023-07-08T10:20:41;4.07;;;2.10;;
7471;SDS011;3777;48.722;8.110;2023-07-08T10:23:20;3.38;;;2.00;;
7471;SDS011;3777;48.722;8.110;2023-07-08T10:26:06;2.60;;;1.88;;
7471;SDS011;3777;48.722;8.110;2023-07-08T10:28:43;4.28;;;2.10;;
7471;SDS011;3777;48.722;8.110;2023-07-08T10:31:16;3.10;;;2.10;;
7471;SDS011;3777;48.722;8.110;2023-07-08T10:34:03;3.75;;;2.00;;
7471;SDS011;3777;48.722;8.110;2023-07-08T10:36:43;3.95;;;2.30;;
7471;SDS011;3777;48.722;8.110;2023-07-08T10:39:33;3.63;;;2.00;;
7471;SDS011;3777;48.722;8.110;2023-07-08T10:42:14;4.03;;;2.40;;
7471;SDS011;3777;48.722;8.110;2023-07-08T10:44:54;7.47;;;2.43;;
7471;SDS011;3777;48.722;8.110;2023-07-08T10:47:32;3.28;;;2.10;;
7471;SDS011;3777;48.722;8.110;2023-07-08T10:50:24;4.40;;;2.30;;
7471;SDS011;3777;48.722;8.110;2023-07-08T10:53:03;2.90;;;2.10;;
7471;SDS011;3777;48.722;8.110;2023-07-08T10:55:43;5.80;;;2.20;;
7471;SDS011;3777;48.722;8.110;2023-07-08T10:58:27;5.20;;;2.20;;
7471;SDS011;3777;48.722;8.110;2023-07-08T11:01:07;3.13;;;2.10;;
7471;SDS011;3777;48.722;8.110;2023-07-08T11:03:49;4.20;;;2.28;;
7471;SDS011;3777;48.722;8.110;2023-07-08T11:06:33;3.38;;;2.20;;
7471;SDS011;3777;48.722;8.110;2023-07-08T11:09:08;3.23;;;2.13;;
7471;SDS011;3777;48.722;8.110;2023-07-08T11:11:39;3.33;;;2.20;;
7471;SDS011;3777;48.722;8.110;2023-07-08T11:14:12;3.20;;;2.23;;
7471;SDS011;3777;48.722;8.110;2023-07-08T11:16:44;4.67;;;2.67;;
7471;SDS011;3777;48.722;8.110;2023-07-08T11:19:15;3.70;;;2.33;;
7471;SDS011;3777;48.722;8.110;2023-07-08T11:21:50;3.70;;;2.20;;
7471;SDS011;3777;48.722;8.110;2023-07-08T11:24:21;4.60;;;2.40;;
7471;SDS011;3777;48.722;8.110;2023-07-08T11:26:57;4.00;;;2.67;;
7471;SDS011;3777;48.722;8.110;2023-07-08T11:29:30;3.50;;;2.30;;
7471;SDS011;3777;48.722;8.110;2023-07-08T11:32:03;3.38;;;2.55;;
7471;SDS011;3777;48.722;8.110;2023-07-08T11:34:31;4.13;;;2.60;;
7471;SDS011;3777;48.722;8.110;2023-07-08T11:37:02;3.63;;;2.70;;
7471;SDS011;3777;48.722;8.110;2023-07-08T11:39:34;3.67;;;2.63;;
7471;SDS011;3777;48.722;8.110;2023-07-08T11:42:11;3.63;;;2.80;;
7471;SDS011;3777;48.722;8.110;2023-07-08T11:44:43;4.53;;;2.95;;
7471;SDS011;3777;48.722;8.110;2023-07-08T11:47:17;4.07;;;2.87;;
7471;SDS011;3777;48.722;8.110;2023-07-08T11:49:47;4.40;;;2.50;;
7471;SDS011;3777;48.722;8.110;2023-07-08T11:52:18;4.72;;;2.70;;
7471;SDS011;3777;48.722;8.110;2023-07-08T11:54:48;4.30;;;2.85;;
7471;SDS011;3777;48.722;8.110;2023-07-08T11:57:28;3.38;;;2.70;;
7471;SDS011;3777;48.722;8.110;2023-07-08T12:00:06;4.70;;;2.80;;
7471;SDS011;3777;48.722;8.110;2023-07-08T12:02:49;5.05;;;2.90;;
7471;SDS011;3777;48.722;8.110;2023-07-08T12:05:19;9.07;;;3.40;;
7471;SDS011;3777;48.722;8.110;2023-07-08T12:11:23;5.10;;;3.35;;
7471;SDS011;3777;48.722;8.110;2023-07-08T12:13:53;6.30;;;3.30;;
7471;SDS011;3777;48.722;8.110;2023-07-08T12:16:21;4.13;;;2.83;;
7471;SDS011;3777;48.722;8.110;2023-07-08T12:18:48;4.97;;;3.30;;
7471;SDS011;3777;48.722;8.110;2023-07-08T12:21:17;3.80;;;3.20;;
7471;SDS011;3777;48.722;8.110;2023-07-08T12:23:45;5.22;;;3.28;;
7471;SDS011;3777;48.722;8.110;2023-07-08T12:26:13;3.63;;;3.00;;
7471;SDS011;3777;48.722;8.110;2023-07-08T12:31:28;4.20;;;3.20;;
7471;SDS011;3777;48.722;8.110;2023-07-08T12:33:57;4.35;;;2.80;;
7471;SDS011;3777;48.722;8.110;2023-07-08T12:36:25;4.13;;;2.90;;
7471;SDS011;3777;48.722;8.110;2023-07-08T12:38:55;4.30;;;3.08;;
7471;SDS011;3777;48.722;8.110;2023-07-08T12:41:24;4.22;;;3.13;;
7471;SDS011;3777;48.722;8.110;2023-07-08T12:43:53;6.67;;;2.93;;
7471;SDS011;3777;48.722;8.110;2023-07-08T12:46:23;4.95;;;3.28;;
7471;SDS011;3777;48.722;8.110;2023-07-08T12:48:51;4.93;;;3.28;;
7471;SDS011;3777;48.722;8.110;2023-07-08T12:51:19;4.43;;;3.17;;
7471;SDS011;3777;48.722;8.110;2023-07-08T12:53:48;4.38;;;3.25;;
7471;SDS011;3777;48.722;8.110;2023-07-08T12:56:16;5.50;;;3.40;;
7471;SDS011;3777;48.722;8.110;2023-07-08T12:58:44;4.63;;;3.50;;
7471;SDS011;3777;48.722;8.110;2023-07-08T13:01:17;5.05;;;3.10;;
7471;SDS011;3777;48.722;8.110;2023-07-08T13:03:48;5.40;;;3.40;;
7471;SDS011;3777;48.722;8.110;2023-07-08T13:06:18;5.45;;;3.20;;
7471;SDS011;3777;48.722;8.110;2023-07-08T13:08:48;5.60;;;3.28;;
7471;SDS011;3777;48.722;8.110;2023-07-08T13:11:17;4.65;;;3.63;;
7471;SDS011;3777;48.722;8.110;2023-07-08T13:13:49;4.57;;;3.40;;
7471;SDS011;3777;48.722;8.110;2023-07-08T13:16:18;6.53;;;3.47;;
7471;SDS011;3777;48.722;8.110;2023-07-08T13:18:48;5.32;;;3.40;;
7471;SDS011;3777;48.722;8.110;2023-07-08T13:21:17;4.32;;;3.00;;
7471;SDS011;3777;48.722;8.110;2023-07-08T13:23:44;4.55;;;3.08;;
7471;SDS011;3777;48.722;8.110;2023-07-08T13:26:12;4.63;;;3.37;;
7471;SDS011;3777;48.722;8.110;2023-07-08T13:28:41;5.47;;;3.40;;
7471;SDS011;3777;48.722;8.110;2023-07-08T13:31:14;5.53;;;3.42;;
7471;SDS011;3777;48.722;8.110;2023-07-08T13:33:45;4.93;;;3.40;;
7471;SDS011;3777;48.722;8.110;2023-07-08T13:36:15;5.70;;;3.53;;
7471;SDS011;3777;48.722;8.110;2023-07-08T13:38:45;5.03;;;3.30;;
7471;SDS011;3777;48.722;8.110;2023-07-08T13:41:16;7.30;;;3.55;;
7471;SDS011;3777;48.722;8.110;2023-07-08T13:43:46;6.00;;;3.30;;
7471;SDS011;3777;48.722;8.110;2023-07-08T13:46:29;5.80;;;3.55;;
7471;SDS011;3777;48.722;8.110;2023-07-08T13:49:00;7.28;;;3.60;;
7471;SDS011;3777;48.722;8.110;2023-07-08T13:51:31;5.30;;;3.40;;
7471;SDS011;3777;48.722;8.110;2023-07-08T13:54:00;5.53;;;3.38;;
7471;SDS011;3777;48.722;8.110;2023-07-08T13:56:35;6.00;;;3.55;;
7471;SDS011;3777;48.722;8.110;2023-07-08T13:59:02;5.53;;;3.50;;
7471;SDS011;3777;48.722;8.110;2023-07-08T14:01:31;6.38;;;3.40;;
7471;SDS011;3777;48.722;8.110;2023-07-08T14:04:00;5.43;;;3.55;;
7471;SDS011;3777;48.722;8.110;2023-07-08T14:06:46;5.50;;;3.60;;
7471;SDS011;3777;48.722;8.110;2023-07-08T14:09:15;5.40;;;3.30;;
7471;SDS011;3777;48.722;8.110;2023-07-08T14:11:43;4.93;;;3.30;;
7471;SDS011;3777;48.722;8.110;2023-07-08T14:14:11;5.10;;;3.40;;
7471;SDS011;3777;48.722;8.110;2023-07-08T14:16:39;5.60;;;3.55;;
7471;SDS011;3777;48.722;8.110;2023-07-08T14:19:10;5.50;;;3.53;;
7471;SDS011;3777;48.722;8.110;2023-07-08T14:21:41;5.37;;;3.80;;
7471;SDS011;3777;48.722;8.110;2023-07-08T14:27:01;5.53;;;3.58;;
7471;SDS011;3777;48.722;8.110;2023-07-08T14:29:28;3.95;;;3.40;;
7471;SDS011;3777;48.722;8.110;2023-07-08T14:31:55;5.40;;;3.60;;
7471;SDS011;3777;48.722;8.110;2023-07-08T14:34:27;6.13;;;3.38;;
7471;SDS011;3777;48.722;8.110;2023-07-08T14:36:54;4.38;;;3.40;;
7471;SDS011;3777;48.722;8.110;2023-07-08T14:39:21;5.05;;;3.38;;
7471;SDS011;3777;48.722;8.110;2023-07-08T14:41:49;6.83;;;3.70;;
7471;SDS011;3777;48.722;8.110;2023-07-08T14:44:20;4.80;;;3.20;;
7471;SDS011;3777;48.722;8.110;2023-07-08T14:46:48;5.65;;;3.40;;
7471;SDS011;3777;48.722;8.110;2023-07-08T14:49:17;4.78;;;3.15;;
7471;SDS011;3777;48.722;8.110;2023-07-08T14:51:45;4.45;;;3.30;;
7471;SDS011;3777;48.722;8.110;2023-07-08T14:54:12;6.05;;;3.50;;
7471;SDS011;3777;48.722;8.110;2023-07-08T14:56:39;4.82;;;3.40;;
7471;SDS011;3777;48.722;8.110;2023-07-08T14:59:09;6.13;;;3.60;;
7471;SDS011;3777;48.722;8.110;2023-07-08T15:01:40;5.55;;;3.55;;
7471;SDS011;3777;48.722;8.110;2023-07-08T15:04:08;4.88;;;3.67;;
7471;SDS011;3777;48.722;8.110;2023-07-08T15:06:36;4.90;;;3.30;;
7471;SDS011;3777;48.722;8.110;2023-07-08T15:09:03;7.40;;;5.20;;
7471;SDS011;3777;48.722;8.110;2023-07-08T15:11:31;6.38;;;4.30;;
7471;SDS011;3777;48.722;8.110;2023-07-08T15:13:58;9.05;;;3.40;;
7471;SDS011;3777;48.722;8.110;2023-07-08T15:16:28;6.38;;;3.30;;
7471;SDS011;3777;48.722;8.110;2023-07-08T15:18:55;5.22;;;3.00;;
7471;SDS011;3777;48.722;8.110;2023-07-08T15:21:22;6.03;;;3.28;;
7471;SDS011;3777;48.722;8.110;2023-07-08T15:23:49;4.72;;;3.30;;
7471;SDS011;3777;48.722;8.110;2023-07-08T15:26:16;3.80;;;3.22;;
7471;SDS011;3777;48.722;8.110;2023-07-08T15:28:44;4.10;;;2.83;;
7471;SDS011;3777;48.722;8.110;2023-07-08T15:31:13;4.68;;;3.00;;
7471;SDS011;3777;48.722;8.110;2023-07-08T15:33:43;5.10;;;3.10;;